x

Nickerson Bank (44251) Wave Buoy

5:00pm - Tue 24th Jan 2017 All times are UTC.

  • Sig Wave height 3.9ft
  • Peak Period 14s
  • Wind
    20mph, 22mph gusts
  • Sea Temp 31°f
  • Air Temp 29°f
  • Sea Pressure 1023.2mb

More Historic Weather Station data

Upgrade to MSW Pro to gain access to the past 30 days of data for over 8000 Wavebouys and Weather Stations around the globe.

Join Pro

Comparision Forecast

View Surf forecast
   
Tue 01/24 5:00pm 4ft 14s 20 22 mph 1023.2mb 31f 29f
4:00pm 4ft 14s 20 22 mph 1023.4mb 31f 28f
3:00pm 4ft 14s 16 20 mph 1023.5mb 31f 28f
2:00pm 4ft 14s 16 18 mph 1023.7mb 31f 27f
1:00pm 4ft 14s 13 16 mph 1023.3mb 31f 26f
12:00pm 4ft 14s 13 16 mph 1023.2mb 31f 26f
11:00am 4ft 14s 13 16 mph 1023mb 31f 25f
10:00am 4.5ft 14s 9 13 mph 1022.5mb 31f 24f
9:00am 4.5ft 14s 11 13 mph 1021.8mb 31f 24f
8:00am 4ft 13s 11 13 mph 1021.6mb 31f 24f
7:00am 4.5ft 14s 11 16 mph 1021.6mb 31f 25f
6:00am 4.5ft 14s 11 13 mph 1021.1mb 31f 26f
5:00am 4.5ft 14s 11 16 mph 1020.6mb 31f 26f
4:00am 5ft 14s 16 22 mph 1020.8mb 31f 26f
3:00am 5ft 14s 16 20 mph 1020.7mb 31f 25f
2:00am 5ft 14s 16 20 mph 1020mb 31f 25f
1:00am 5ft 14s 13 18 mph 1019mb 31f 24f
12:00am 4.5ft 14s 13 16 mph 1018.6mb 31f 23f
Mon 01/23 11:00pm 4.5ft 14s 16 18 mph 1018.3mb 31f 23f
10:00pm 5ft 13s 20 25 mph 1017.5mb 31f 23f
9:00pm 5ft 14s 18 25 mph 1016.7mb 31f 23f
8:00pm 5ft 14s 20 25 mph 1015.7mb 31f 23f
7:00pm 5.5ft 14s 18 20 mph 1015.1mb 31f 22f
6:00pm 5.5ft 14s 20 25 mph 1014.2mb 32f 22f
5:00pm 6ft 14s 22 27 mph 1014mb 31f 22f
4:00pm 6ft 14s 22 29 mph 1013.7mb 31f 22f
3:00pm 6.5ft 14s 25 31 mph 1013.5mb 31f 22f
2:00pm 7ft 14s 25 31 mph 1013.2mb 31f 22f
1:00pm 6.5ft 14s 25 31 mph 1012.6mb 31f 23f
12:00pm 6ft 14s 25 29 mph 1012.1mb 31f 24f
11:00am 6ft 14s 20 25 mph 1011.2mb 31f 25f
10:00am 5ft 14s 11 13 mph 1010.7mb 31f 26f
9:00am 5ft 14s 13 16 mph 1010.4mb 31f 26f
8:00am 5ft 14s 16 18 mph 1009.9mb 31f 27f
7:00am 5.5ft 13s 22 25 mph 1009.5mb 31f 27f
6:00am 5ft 12s 18 22 mph 1009.2mb 31f 28f
5:00am 5ft 11s 18 22 mph 1008.9mb 31f 28f
4:00am 4.5ft 11s 18 20 mph 1008.9mb 31f 29f
3:00am 4.5ft 10s 16 20 mph 1008.8mb 31f 29f
2:00am 4.5ft 12s 16 20 mph 1008.7mb 31f 30f
1:00am 4.5ft 10s 13 18 mph 1008.7mb 31f 29f
12:00am 4.5ft 12s 11 13 mph 1008.2mb 31f 29f
Sun 01/22 11:00pm 4.5ft 11s 11 13 mph 1007.7mb 31f 29f
10:00pm 4.5ft 12s 9 11 mph 1007mb 31f 29f
9:00pm 4.5ft 11s 9 13 mph 1006.5mb 31f 29f
8:00pm 4.5ft 12s 9 13 mph 1006.1mb 31f 28f
7:00pm 4.5ft 12s 11 13 mph 1006.1mb 31f 28f
6:00pm 5ft 11s 13 16 mph 1006.1mb 31f 28f
5:00pm 5ft 12s 13 16 mph 1005.9mb 32f 28f
4:00pm 5ft 11s 11 13 mph 1005.8mb 31f 28f
3:00pm 5ft 12s 11 16 mph 1005.8mb 31f 28f
2:00pm 6ft 12s 13 16 mph 1005.6mb 31f 28f
1:00pm 6ft 12s 16 18 mph 1005.3mb 31f 28f
12:00pm 6ft 12s 16 22 mph 1005mb 31f 28f
11:00am 6.5ft 12s 18 22 mph 1004.1mb 31f 28f
10:00am 7.5ft 12s 20 25 mph 1003.5mb 31f 29f
9:00am 7.5ft 12s 20 25 mph 1003.2mb 31f 28f
8:00am 7.5ft 12s 18 22 mph 1003.1mb 31f 28f
7:00am 8ft 12s 20 25 mph 1003mb 31f 28f
6:00am 8ft 12s 18 22 mph 1001.6mb 31f 28f
5:00am 9ft 12s 20 25 mph 1001.3mb 32f 28f
4:00am 8.5ft 12s 22 29 mph 1000.5mb 32f 29f
3:00am 9.5ft 12s 25 31 mph 1000.3mb 32f 29f
2:00am 9ft 12s 27 34 mph 999.6mb 32f 29f
1:00am 10.5ft 12s 29 38 mph 998.7mb 32f 30f
12:00am 10ft 11s 31 38 mph 997.4mb 32f 30f
Sat 01/21 11:00pm 11.5ft 12s 34 43 mph 996.3mb 32f 30f
10:00pm 11.5ft 11s 31 40 mph 995.3mb 32f 31f
9:00pm 12.5ft 12s 34 45 mph 994mb 32f 31f
8:00pm 13ft 12s 36 45 mph 992.7mb 32f 31f
7:00pm 13.5ft 12s 36 45 mph 991.7mb 32f 31f
6:00pm 13ft 12s 34 45 mph 991mb 32f 31f
5:00pm 13ft 12s 36 43 mph 990.5mb 32f 31f
3:00pm 14ft 12s 36 45 mph 991.1mb 32f 30f
2:00pm 14.5ft 12s 38 51 mph 991.2mb 32f 30f
1:00pm 14ft 10s 40 49 mph 990.9mb 32f 30f
12:00pm 14.5ft 12s 40 51 mph 991.1mb 32f 30f
11:00am 13.5ft 12s 40 47 mph 991.1mb 32f 30f
10:00am 13.5ft 12s 40 49 mph 991.3mb 32f 30f
9:00am 12.5ft 10s 38 49 mph 991.6mb 32f 30f
8:00am 13ft 10s 38 45 mph 992.1mb 32f 30f
7:00am 13.5ft 9s 38 47 mph 993mb 32f 30f
6:00am 13ft 10s 40 49 mph 993.7mb 32f 31f
5:00am 12.5ft 9s 38 49 mph 994.7mb 32f 30f
4:00am 13ft 9s 38 49 mph 996.5mb 32f 30f
2:00am  -   -  36
mph
1000.4mb - 30f
1:00am 11.5ft 8s 34 45 mph 1002.1mb 33f 31f
12:00am 10ft 8s 34 40 mph 1003.4mb 33f 31f
Fri 01/20 11:00pm 10ft 8s 34 43 mph 1005.1mb 33f 32f
10:00pm 10ft 8s 31 38 mph 1006.4mb 33f 32f
9:00pm 9.5ft 7s 31 36 mph 1007.4mb 33f 32f
8:00pm 9ft 7s 31 38 mph 1008.1mb 33f 32f
7:00pm 9.5ft 13s 31 36 mph 1008.8mb 33f 32f